x

9439040 - Astoria, Or (asto3) Weather Station

8:54 - Mon 2nd Mar 2015 All times are PST. -8 hours from GMT.

  • Wind
    6mph, 8mph gusts
  • Sea Temp 45°f
  • Ar Temp 43°f
  • Sea Pressure 1016.4mb
  • 9439040 - Astoria, Or
  • 9439040 - Astoria, Or

More Historic Weather Station data

Upgrade to MSW Pro to gain access to the past 30 days of data for over 8000 Wavebouys and Weather Stations around the globe.

Join Pro

Comparision Forecast

View Surf forecast
   
Seg 03/02 8:54 6 8 mph 1016.4mb 45f 43f
8:48 6 8 mph 1016.4mb 45f 43f
8:42 7 8 mph 1016.5mb 45f 43f
8:36 6 7 mph 1016.4mb 45f 43f
8:30 2 3 mph 1016.4mb 45f 43f
8:24 2 5 mph 1016.3mb 45f 43f
8:18 3
mph
1016.2mb 45f 43f
8:12 1 2 mph 1016.1mb 45f 42f
8:06  -  1 mph 1016.1mb 45f 42f
8:00  -  1 mph 1016mb 45f 43f
7:54  -  2 mph 1016mb 45f 43f
7:48 1 3 mph 1016mb 45f 43f
7:42 3 5 mph 1016.1mb 45f 43f
7:36 1 5 mph 1016mb 45f 43f
7:30 3 7 mph 1015.9mb 45f 43f
7:24 3 6 mph 1015.9mb 45f 43f
7:18 5 7 mph 1015.8mb 45f 43f
7:12 6 7 mph 1015.9mb 45f 43f
7:06 6 8 mph 1015.9mb 45f 43f
7:00 5 7 mph 1015.9mb 45f 43f
6:54 5 6 mph 1015.7mb 45f 42f
6:48 3 6 mph 1015.6mb 45f 43f
6:42 6 7 mph 1015.6mb 45f 43f
6:36 1 2 mph 1015.4mb 45f 42f
6:30  -  2 mph 1015.3mb 45f 42f
6:24 1 5 mph 1015.2mb 45f 42f
6:18  -  3 mph 1015.2mb 45f 42f
6:12 2 5 mph 1015.2mb 45f 42f
6:06 3 8 mph 1015.2mb 45f 42f
6:00 3 7 mph 1015mb 45f 43f
5:54 5 8 mph 1014.9mb 45f 43f
5:48 5 7 mph 1015mb 45f 43f
5:42 3 6 mph 1014.9mb 45f 43f
5:36 3 5 mph 1014.9mb 45f 43f
5:30 2 5 mph 1014.9mb 45f 42f
5:24 1 3 mph 1014.9mb 45f 42f
5:18 2 3 mph 1014.8mb 45f 42f
5:12  -  2 mph 1014.8mb 45f 42f
5:06  -  5 mph 1014.8mb 45f 42f
5:00 1 2 mph 1014.7mb 45f 42f
4:54  -  1 mph 1014.6mb 45f 42f
4:48  -  3 mph 1014.4mb 45f 42f
4:42 1 7 mph 1014.4mb 45f 43f
4:36 5 8 mph 1014.5mb 45f 43f
4:30 5 7 mph 1014.4mb 45f 43f
4:24 2 5 mph 1014.3mb 45f 43f
4:18 3 7 mph 1014.6mb 45f 43f
4:12 3 8 mph 1014.6mb 45f 43f
4:06 3 6 mph 1014.6mb 45f 43f
4:00 3 7 mph 1014.6mb 45f 43f
3:54 3 7 mph 1014.6mb 45f 43f
3:48 1 9 mph - - -
3:42 6 10 mph 1014.6mb 45f 43f
3:36 7 9 mph 1014.5mb 45f 43f
3:30 7 9 mph 1014.5mb 45f 43f
3:24 3 6 mph 1014.5mb 45f 43f
3:18 2 6 mph - - -
3:12 5 7 mph 1014.3mb 45f 43f
3:06 5 7 mph 1014.5mb 45f 44f
3:00 6 7 mph 1014.5mb 45f 43f
2:54 6 7 mph 1014.6mb 45f 44f
2:48 6 8 mph 1014.6mb 45f 44f
2:42 7 8 mph 1014.7mb 45f 43f
2:36 6 8 mph 1014.7mb 45f 43f
2:30 2 6 mph 1014.5mb 45f 43f
2:24 6 7 mph 1014.5mb 45f 44f
2:18 5 7 mph 1014.6mb 45f 44f
2:12 3 6 mph 1014.6mb 45f 44f
2:06 2 5 mph 1014.5mb 45f 43f
2:00 5 6 mph 1014.5mb 45f 43f
1:54 5 6 mph 1014.5mb 45f 44f
1:48 2 6 mph 1014.5mb 45f 44f
1:42  -  5 mph 1014.4mb 45f 44f
1:36 2 7 mph 1014.3mb 45f 44f
1:30 5 6 mph 1014.4mb 45f 44f
1:24 3 6 mph 1014.4mb 45f 44f
1:18 5 7 mph 1014.4mb 45f 44f
1:12 3 6 mph 1014.5mb 45f 44f
1:06 5 9 mph 1014.6mb 45f 44f
1:00 5 8 mph 1014.6mb 45f 44f
12:54 5 9 mph 1014.7mb 45f 44f
12:48 2 7 mph 1014.8mb 45f 44f
12:42 1 7 mph 1014.8mb 45f 44f
12:36  -  2 mph 1014.9mb 45f 44f
12:30  -  3 mph 1014.9mb 45f 44f
12:24 1 6 mph 1015mb 45f 44f
12:18  -  5 mph 1015mb 45f 45f
12:12 1 6 mph 1015mb 45f 45f
12:06 3 6 mph 1015.1mb 45f 45f
12:00 1 6 mph 1015.1mb 45f 45f
Dom 03/01 11:54 3 7 mph 1015.1mb 45f 45f
11:48 3 8 mph 1015.1mb 45f 45f
11:42 5 8 mph 1015.1mb 45f 45f
11:36 6 7 mph 1015.2mb 45f 45f
11:30 6 7 mph 1015.2mb 45f 45f
11:24 6
mph
1015.2mb 45f 45f
11:18 5 6 mph 1015.3mb 45f 45f
11:12 5 6 mph 1015.4mb 45f 45f
11:06 3 6 mph 1015.5mb 45f 45f
11:00 1 5 mph 1015.6mb 45f 45f
10:54 1 2 mph 1015.7mb 45f 45f
10:48 1 3 mph 1015.8mb 45f -
10:24 7 9 mph 1016.1mb 45f 46f
10:00 10 11 mph - 45f 46f
9:42 7 10 mph 1016.3mb 45f 47f
9:36 6 7 mph 1016.3mb 45f 47f
9:30 3 8 mph 1016.3mb 45f 47f
9:24 1 5 mph 1016.3mb 45f 47f
9:18 1 5 mph 1016.4mb 45f 47f
9:12  -  5 mph 1016.4mb 45f 47f
9:06 2 6 mph 1016.4mb 45f 47f
9:00 2 6 mph 1016.4mb 45f 47f
8:42 2 5 mph 1016.5mb 45f 47f
8:36 3 6 mph 1016.6mb 46f 47f
8:30 3 5 mph 1016.6mb 46f 46f
8:24 1 3 mph 1016.6mb 46f 46f
8:00 2 6 mph 1016.9mb 46f 46f
7:54 2 5 mph 1016.8mb 46f 46f
7:48  -  1 mph 1016.9mb 46f 46f
7:30 1 3 mph 1017.1mb 46f 47f
7:24  -  5 mph 1017.1mb 46f 47f
7:00 5 8 mph 1017.2mb 46f 48f
6:54 6 7 mph 1017.2mb 46f 48f
6:48 6 9 mph 1017.2mb 46f 48f
6:42 5 8 mph 1017.2mb 46f 49f
6:36 5 6 mph 1017.3mb 46f 48f
6:30 3 6 mph - - -
6:24 3 6 mph 1017.4mb 46f 48f
6:18 3 5 mph 1017.5mb 46f 48f
6:12 3 5 mph 1017.5mb 46f 48f
5:48 3 5 mph 1017.7mb 46f 48f
5:42 3 5 mph 1017.8mb 46f 48f
5:36 3 5 mph 1017.8mb 46f 48f
5:30 3 7 mph 1017.9mb 46f 48f
5:24 3 6 mph 1018mb 46f 48f
5:18 5 6 mph 1018.2mb 46f 48f
5:00 5 6 mph 1018.6mb 46f 48f
4:54 5 7 mph 1018.8mb 46f 48f
4:48 2 3 mph 1018.9mb 46f 48f
4:42 1 6 mph 1019mb 46f 48f
4:36 1 5 mph 1019.1mb 46f 48f
4:30 2 7 mph 1019.1mb 46f 48f
4:24 1 5 mph 1019.2mb 46f 48f
4:18 2 6 mph 1019.3mb 46f 48f
4:12 3 8 mph 1019.3mb 46f 48f
4:06 5 9 mph 1019.4mb 46f 48f
4:00 5 9 mph 1019.5mb 46f 48f
3:54 6 10 mph 1019.6mb 46f 48f
3:48 7 11 mph 1019.5mb 46f 48f
3:42 7 11 mph 1019.5mb 46f 48f
3:36 6 10 mph 1019.5mb 46f 48f
3:30 7 11 mph 1019.6mb 46f 48f
3:24 7 11 mph 1019.7mb 46f 48f
3:18 7 10 mph 1019.7mb 46f 48f
3:12 7 10 mph 1019.7mb 46f 48f
3:06 6 9 mph 1019.9mb 46f 48f
3:00 6 10 mph 1020mb 46f 48f
2:54 6 10 mph 1020mb 46f 48f
2:48 6 10 mph 1020.1mb 46f 48f
2:42 7 11 mph 1020.1mb 46f 48f
2:36 6 13 mph 1020.2mb 46f 48f
2:30 6 11 mph 1020.3mb 46f 48f
2:24 8 11 mph 1020.5mb 45f 48f
2:18 7 13 mph 1020.5mb 45f 48f
2:12 7 13 mph 1020.6mb 45f 48f
2:06 3 10 mph 1020.7mb 45f 49f
2:00 6 11 mph 1020.8mb 45f 48f
1:54 6 9 mph 1020.8mb 45f 48f
1:48 7 11 mph 1020.9mb 45f 48f
1:42 5 9 mph 1021mb 45f 48f
1:36 6 10 mph 1021.1mb 45f 48f
1:30 6 8 mph 1021.1mb 45f 49f
1:24 5 7 mph 1021.2mb 45f 48f
1:18 2 6 mph 1021.2mb 45f 48f
1:12 1 3 mph 1021.3mb 45f 48f
1:06  -  2 mph 1021.4mb 45f 49f
1:00 1 2 mph 1021.5mb 45f 48f
12:54 1 2 mph 1021.7mb 45f 47f
12:48 1 2 mph 1021.8mb 45f 46f
12:42 1 2 mph 1022mb 45f 47f
12:36 1 2 mph 1022.1mb 45f 47f
12:30  -  1 mph 1022.2mb 45f 46f
12:24 1 2 mph 1022.4mb 45f 45f
12:18 2 3 mph - - -
12:12 3 5 mph 1022.6mb 45f 44f
12:06 3
mph
1022.6mb 45f 44f
12:00 3 5 mph 1022.5mb 45f 44f
11:54 3 5 mph 1022.6mb 45f 43f
11:48 2 5 mph 1022.6mb 45f 45f
11:42 2 5 mph 1022.7mb 45f 44f
11:36 3
mph
1022.8mb 45f 45f
11:30 1 6 mph 1022.8mb 45f 46f
11:24 1 3 mph 1022.8mb 45f 46f
11:18  -  3 mph 1022.8mb 45f 45f
11:12 1 3 mph 1022.9mb 45f 45f
11:06 3 6 mph 1023mb 45f 44f
11:00 1 3 mph 1023.1mb 45f 44f
10:54  -  2 mph 1023.1mb 45f 43f
10:48 1 2 mph 1023.3mb 45f 43f
10:42  -  3 mph 1023.4mb 45f 44f
10:36 2 3 mph 1023.5mb 45f 42f
10:30 2 5 mph 1023.5mb 45f 42f
10:24 2 5 mph 1023.5mb 45f 42f
10:18 3 5 mph 1023.6mb 45f 41f
10:12 2 5 mph 1023.7mb 45f 41f
10:06 2 7 mph 1023.7mb 45f 42f
10:00 2 5 mph 1023.7mb 45f -
9:54 1 2 mph 1023.8mb 45f 41f
9:48  -  1 mph 1023.9mb 45f 41f
9:42 1 2 mph 1024mb 45f 41f
9:36 2 5 mph 1024.1mb 45f 40f
9:30 2 5 mph 1024.1mb 45f 40f
9:24 3 6 mph 1024mb 45f 40f
9:18 6 9 mph 1024mb 45f 39f
9:12 7 9 mph 1023.9mb 45f 39f
9:06 5 8 mph 1024mb 45f 40f
9:00 6 9 mph 1024.1mb 45f 39f
8:54 6 9 mph 1024.1mb 45f 39f
8:48 3 6 mph 1024.3mb 45f 39f
8:42 1 6 mph 1024.4mb 45f 39f
8:36 3 6 mph 1024.5mb 45f 39f
8:30 3 8 mph 1024.4mb 45f 38f
8:24 2 8 mph 1024.4mb 45f 38f
8:18 5 7 mph 1024.4mb 45f 38f
8:12 3 6 mph 1024.4mb 45f 38f
8:06 2 5 mph 1024.4mb 45f 37f
8:00 2 6 mph 1024.4mb 45f 37f
7:54 2 7 mph 1024.3mb 45f 37f
7:48 3 7 mph 1024.2mb 45f 37f
7:42 6 8 mph 1024.1mb 45f 37f
7:36 3 6 mph 1024.2mb 45f 37f
7:30 3 6 mph 1024.1mb 45f 37f
7:24  -  6 mph 1024mb 45f 37f
7:18 3 5 mph 1024.1mb 45f 37f
7:12  -  2 mph 1024.1mb 45f 37f
7:06 1 3 mph 1024.2mb 45f 37f
7:00  -  2 mph 1024.2mb 45f 37f
6:54 1 3 mph 1024.2mb 45f 37f
6:48  -  2 mph 1024.2mb 45f 37f
6:42 2 5 mph 1024.2mb 45f 37f
6:24 2 5 mph 1024.3mb - -
6:18 1 2 mph 1024.4mb 45f 37f
6:12 1 3 mph 1024.4mb 45f 37f
6:06 1 3 mph 1024.3mb 45f 37f
6:00 2 3 mph 1024.3mb 45f 37f
5:54 1 5 mph 1024.3mb 45f 37f
5:48 3 6 mph 1024.4mb 45f 37f
5:42 5 7 mph 1024.3mb 45f 37f
5:36 5 8 mph 1024.2mb 45f 38f
5:30 1 5 mph 1024.3mb 45f 38f
5:24 2 5 mph 1024.2mb 45f 37f
5:00  -  2 mph 1024.3mb 45f 37f
4:54  -  2 mph 1024.3mb 45f 37f
4:48  -  2 mph 1024.2mb 45f 37f
4:42 1 2 mph 1024.2mb - -
4:36 1 2 mph 1024.3mb 45f 37f
4:30  -  1 mph 1024.3mb 45f 37f
4:24  -  1 mph 1024.3mb 45f 37f
4:18  -  2 mph 1024.3mb 45f 37f
4:12  -  2 mph 1024.3mb 45f 37f
4:06  -  1 mph 1024.3mb 45f 37f
4:00  -  1 mph 1024.2mb 45f 37f
3:54 1 3 mph 1024.3mb 45f 37f
3:48  -  2 mph 1024.4mb 45f 37f
3:42  -  1 mph 1024.4mb 45f 37f
3:36 2 6 mph 1024.3mb 45f 38f
3:30 3 5 mph 1024.3mb 45f 38f
3:24 2 3 mph 1024.3mb 45f 38f
3:18 2 6 mph 1024.4mb 45f 38f
3:12 3 8 mph 1024.4mb 45f 38f
3:06 6 8 mph 1024.3mb 45f 38f
3:00 5 8 mph 1024.4mb 45f 38f
2:54 1 3 mph 1024.6mb 45f 38f
2:48  -  2 mph 1024.6mb 46f 38f
2:42 1 2 mph 1024.8mb 46f 38f
2:36 1 2 mph 1024.9mb 46f 39f
2:30 2
mph
1025mb 46f 39f
2:24 1 2 mph 1025.1mb 46f 39f
2:18 2
mph
1025.1mb 46f 39f
2:12 1 2 mph 1025.1mb 46f 39f
2:06 2 3 mph 1025mb 46f 39f
2:00  -  8 mph 1025mb 46f 39f
1:54 6 8 mph 1025mb 46f 39f
1:48 3 5 mph 1025mb 46f 39f
1:42 1 3 mph 1025mb 45f 39f
1:36 1 3 mph 1025mb 45f 39f
1:30 2
mph
1025mb 45f 40f
1:24 2 3 mph 1025mb 46f 40f
1:18  -  3 mph 1025mb 46f 40f
1:12 2 3 mph 1024.9mb 46f 40f
1:06 1 2 mph 1024.9mb 46f 40f
1:00  -  2 mph 1024.8mb 46f 40f
12:54  -  1 mph 1024.8mb 46f 40f
12:48 2
mph
1024.9mb 45f 40f
12:42  -  mph 1024.9mb 45f 40f
12:24 2 3 mph - - -
12:18 2 3 mph 1024.7mb 45f 40f
12:12 1
mph
1024.7mb 45f 40f
12:06  -  3 mph 1024.7mb 45f 40f
12:00 2
mph
1024.7mb 45f 40f
Sáb 02/28 11:54  -  1 mph 1024.7mb 45f 40f
11:48 1 2 mph 1024.6mb 45f 41f
11:42 1 2 mph 1024.6mb 45f 41f
11:36 1 5 mph 1024.7mb 45f 41f
11:30 5 6 mph 1024.7mb 45f 41f
11:24 2 3 mph 1024.6mb 45f 42f
11:18 2 5 mph 1024.6mb 45f 42f
11:12 1 2 mph 1024.5mb 45f 42f
11:06 3 6 mph 1024.4mb 45f 42f
11:00 5 7 mph 1024.4mb 45f 42f
10:54 5 6 mph 1024.4mb 46f 42f
10:48 3 8 mph 1024.4mb 46f 43f
10:42 6 7 mph 1024.3mb 46f 43f
10:24 2
mph
1024.2mb 46f 43f
10:18 2 5 mph 1024.3mb 46f 44f
9:54 2 3 mph 1024.2mb 46f 43f
9:48 2
mph
1024.1mb 46f 44f
9:42  -  2 mph 1024mb 45f 45f
9:36 2 5 mph 1024.1mb 45f 45f
9:30 3 6 mph 1024.1mb 45f 47f
9:24 5 6 mph 1024mb 45f 47f
9:18 5 7 mph 1024mb 46f 47f
9:12 5 7 mph 1024mb 46f 47f
9:06 5 6 mph 1023.9mb 46f 47f
9:00 3 6 mph 1023.9mb 46f 47f
8:54 3 5 mph 1023.9mb 46f 47f
8:48 3 5 mph 1023.8mb 46f 47f
8:42 3 5 mph 1023.9mb 45f 47f
8:36 2 6 mph 1023.9mb 45f 47f
8:30 6 10 mph 1023.8mb 46f 47f
8:24 8 11 mph 1023.8mb 46f 48f
8:18 7 9 mph 1023.7mb 46f 48f
8:12 5 8 mph 1023.6mb 46f 48f
8:06 7 9 mph 1023.5mb 46f 47f
7:48 7 11 mph 1023.2mb 46f 48f
7:42 8 10 mph 1023.2mb 46f 49f
7:36 2 3 mph 1023.2mb 46f 48f
7:30  -  2 mph 1023.1mb 46f 48f
7:24 2 3 mph 1023mb 46f 48f
7:18 1 2 mph 1022.9mb 46f 48f
7:12 2 3 mph 1022.8mb 46f 47f
7:06 2 5 mph 1022.8mb 46f 47f
7:00 2 5 mph 1022.7mb 46f 49f
6:54 3 5 mph 1022.6mb 46f 49f
6:48 2 5 mph 1022.5mb 46f 50f
6:42 1 7 mph 1022.4mb 46f 52f
6:36 6 10 mph 1022.3mb 46f 53f
6:30 8 10 mph 1022.1mb 46f 53f
6:24 7 11 mph 1022mb 46f 53f
6:18 6 11 mph 1022mb 46f 53f
6:12 9 11 mph - - -
6:06 7 10 mph 1022mb 46f 53f
6:00 6 8 mph 1022mb 46f 53f
5:54 7 10 mph 1022mb 46f 54f
5:48 7 9 mph 1022mb 46f 54f
5:42 7 13 mph 1022mb 47f 54f
5:36 6 10 mph 1021.9mb 47f 53f
5:30 8 11 mph 1021.8mb 47f 53f
5:24 8 11 mph 1021.7mb 47f 54f
5:18 8 11 mph 1021.7mb 47f 55f
5:12 9 11 mph 1021.5mb 47f 55f
5:06 9 13 mph 1021.5mb 46f 55f
5:00 10 14 mph 1021.4mb 47f 55f
4:54 10 15 mph 1021.4mb 47f 55f
4:48 11 15 mph 1021.4mb 46f 55f
4:42 9 11 mph 1021.4mb 46f 55f
4:36 9 14 mph 1021.5mb 46f 55f
4:30 10 14 mph 1021.5mb 46f 55f
4:24 9 14 mph 1021.4mb 46f 55f
4:18 10 13 mph 1021.4mb 46f 55f
4:12 11 14 mph 1021.3mb 46f 56f
4:06 8 11 mph 1021.2mb 46f 55f
4:00 9 11 mph 1021.2mb 46f 56f
3:54 9 13 mph 1021.3mb 46f 56f
2:54 3 7 mph 1021.8mb 45f 54f
2:48 6 7 mph 1021.7mb 45f 53f
2:42 5 6 mph 1021.7mb 45f 54f
2:36 6 7 mph 1021.8mb 45f 52f
2:30 7 8 mph 1021.6mb 45f 52f
2:24 7 8 mph 1021.6mb 45f 53f
2:18 7 8 mph 1021.6mb 45f 53f
2:12 7 8 mph - - -
2:06 6 8 mph 1021.5mb 45f 51f
2:00 6 9 mph 1021.5mb 45f 52f
1:54 7 8 mph 1021.4mb 45f 52f
1:48 5 8 mph 1021.4mb 45f 53f
1:42 5 8 mph 1021.3mb 45f 52f
1:36 6 8 mph 1021.2mb 45f 53f
1:30 6 9 mph 1021.2mb 45f 52f
1:24 7 9 mph 1021.2mb 45f 52f
1:18 5 7 mph 1021.3mb 45f 53f
1:12 6 7 mph 1021.3mb 45f 52f
1:06 5 8 mph 1021.4mb 45f 52f
1:00 2 3 mph 1021.5mb 45f 53f
12:54 2 5 mph 1021.6mb 45f 53f
12:48 3 6 mph 1021.7mb 45f 52f
12:42 3 8 mph 1021.7mb 45f 52f
12:36 3 9 mph 1021.7mb 45f 52f
12:30 7 10 mph 1021.7mb 45f 51f
12:24 9 11 mph 1021.7mb 45f 51f
12:18 9 13 mph 1021.7mb 45f 51f
12:12 7 11 mph 1021.6mb 45f 51f
12:06 7 10 mph 1021.7mb 45f 51f
12:00 8 10 mph 1021.6mb 45f 50f
11:54 8 9 mph 1021.6mb 45f 49f
11:48 6 7 mph 1021.6mb 45f 49f
11:42 5 7 mph 1021.7mb 45f 49f
11:36 6 8 mph 1021.7mb 45f 49f
11:30 6 8 mph 1021.7mb 45f 48f
11:24 7 9 mph 1021.7mb 45f 49f
11:18 6 9 mph 1021.7mb 45f 48f
11:12 6 9 mph 1021.6mb 45f 49f
11:06 7 8 mph 1021.7mb 45f 48f
11:00 1 3 mph 1021.6mb 45f 49f
10:54 2 3 mph 1021.6mb 45f 49f
10:48 1 5 mph 1021.4mb 45f 49f
10:42 2 6 mph 1021.3mb 45f 49f
10:36 2 6 mph 1021.1mb 45f 49f
10:30 3 6 mph 1021mb 45f 49f
10:24 1 7 mph 1020.9mb 45f 49f
10:18 2 7 mph 1020.8mb 45f 48f
10:00 3 8 mph 1020.8mb 45f 49f
9:54 6 14 mph 1020.8mb 45f 48f
9:48 11 22 mph 1020.7mb 45f 48f
9:42 11 15 mph 1020.7mb 45f 48f
9:36 6 10 mph 1020.7mb 45f 47f
9:30 3 6 mph 1020.6mb 45f 47f
9:24 3 7 mph 1020.6mb 45f 47f
9:18 5 8 mph 1020.5mb 45f 47f
9:12 3 6 mph 1020.4mb 45f 46f
9:06 2 8 mph 1020.3mb 45f 47f
9:00 5 8 mph 1020.3mb 45f 47f
8:54 3 7 mph 1020.2mb 45f 47f
8:48 6 8 mph 1020mb 45f 47f
8:42 5 9 mph 1020mb 45f 47f
8:36 5 10 mph 1019.9mb 45f 46f
8:30 5 10 mph 1019.9mb - -
8:24 6 10 mph 1019.7mb 45f 46f
8:18 6 8 mph 1019.7mb 45f 46f
8:12 6 8 mph 1019.6mb 45f 45f
8:06 5 7 mph 1019.5mb 45f 45f
8:00  -  8 mph 1019.4mb 45f 45f
7:54 5 7 mph 1019.3mb 45f 45f
7:48 2 6 mph 1019.2mb 45f 45f
7:42  -  8 mph 1019.1mb 45f 45f
7:36 2 6 mph 1019.1mb 45f 45f
7:30 7 10 mph 1018.8mb 45f 45f
7:24 8 11 mph 1018.7mb 45f 45f
7:18 5 11 mph 1018.6mb 45f 46f
7:12 8 11 mph 1018.5mb 45f 46f
7:06 5 7 mph 1018.3mb 45f 46f
7:00 3 8 mph 1018.2mb 45f 46f
6:54 2 7 mph 1018.1mb 45f 46f
6:48 3 7 mph 1017.9mb 45f 46f
6:42 5 10 mph 1017.8mb 45f 46f
6:36 2 6 mph 1017.7mb 45f 46f
6:30 3 10 mph 1017.5mb 45f 46f
6:12 3 7 mph 1017.4mb 45f 46f
6:06 3 5 mph 1017.4mb 45f 46f
6:00 3 8 mph 1017.3mb 45f 46f
5:54 6 8 mph 1017.3mb 45f 46f
5:48 2 3 mph 1017.3mb 45f 45f
5:42 3 5 mph 1017.2mb 45f 44f
5:36 3 5 mph 1017mb 45f 43f
5:30 2 5 mph 1017mb 45f 43f
5:24 2 3 mph 1016.9mb 45f 43f
5:18  -  1 mph 1016.8mb 45f 43f
5:12  -  1 mph 1016.7mb 45f 44f
5:06  -  2 mph 1016.6mb 45f 43f
5:00 2 3 mph 1016.5mb 45f 44f
4:54 2 3 mph 1016.6mb 45f 45f
4:48 1 2 mph 1016.6mb 45f 45f
4:42  -  2 mph 1016.5mb 45f 44f
4:36 1 3 mph 1016.4mb 46f 45f
4:30  -  2 mph 1016.2mb 46f 45f
4:24 1 5 mph 1016.1mb 46f 45f
4:18 5 7 mph 1015.9mb 46f 47f
4:12 6 11 mph 1015.8mb 46f 47f
4:06 3 7 mph 1015.8mb 46f 47f
4:00 3 10 mph 1015.7mb 46f 47f
3:54 5 8 mph 1015.5mb 46f 46f
3:48 5 7 mph 1015.5mb 46f 47f
3:42 5 11 mph 1015.4mb 46f 47f
3:36 2 3 mph 1015.4mb 46f 47f
3:30 3 6 mph 1015.4mb 46f 47f
3:24 2 6 mph 1015.3mb 46f 47f
3:18 5 8 mph 1015.2mb 46f 47f
3:12 3 11 mph 1015.1mb 46f 47f
3:06 5 8 mph 1015.1mb 45f 47f
3:00 5 9 mph 1015mb 45f 47f
2:54 3 7 mph 1014.9mb 45f 47f
2:48 5 9 mph 1014.8mb 45f 47f
2:42 3 6 mph 1014.8mb 45f 47f
2:36 2 8 mph 1014.7mb 45f 47f
2:30 2 6 mph 1014.6mb 45f 47f
2:24 2 5 mph 1014.6mb 45f 47f
2:18 3 6 mph 1014.6mb 45f 46f
2:12 2 5 mph 1014.5mb 45f 46f
2:06 3 5 mph 1014.4mb 45f 47f
2:00 2 3 mph 1014.2mb 45f 46f
1:54 2 3 mph 1014mb 45f 47f
1:48 2 5 mph 1013.9mb 45f 47f
1:42  -  2 mph 1013.8mb 45f 46f
1:36  -  2 mph 1013.6mb 45f 46f
1:30  -  2 mph 1013.5mb 46f 46f
1:24  -  2 mph 1013.5mb 46f 46f
1:18  -  3 mph 1013.4mb 46f 47f
1:12 2 6 mph 1013.3mb 46f 47f
1:06 3 10 mph 1013.2mb 46f 47f
1:00 8 10 mph 1013.1mb 46f 47f
12:54 7 11 mph 1013.1mb 46f 47f
12:48 5 8 mph 1013.1mb 46f 47f
12:42 6 9 mph 1013mb 46f 48f
12:36 7 11 mph 1012.9mb 46f 47f
12:30 5 9 mph 1012.8mb 45f 47f
12:24 2 6 mph 1012.7mb 45f 47f
12:18 2 7 mph 1012.7mb 45f 47f
12:12 2 7 mph 1012.6mb 45f 47f
12:06 2 7 mph 1012.5mb 45f 47f
12:00 3 7 mph 1012.5mb 45f 47f
Sex 02/27 11:54 2 6 mph 1012.4mb 45f 47f
11:48  -  7 mph 1012.3mb 45f 47f
11:42 3 7 mph 1012.3mb 45f 47f
11:36 1 3 mph 1012.3mb 45f 46f
11:30 1 9 mph 1012.2mb 45f 47f
11:24 7 10 mph 1012.1mb 45f 47f
11:18 7 10 mph 1012mb 45f 46f
11:12 5 9 mph 1011.9mb 45f 47f
11:06 5 7 mph 1011.9mb 45f 46f
11:00 2 5 mph 1011.8mb 45f 46f
10:36 1 2 mph 1011.5mb 45f 45f
10:30  -  1 mph 1011.4mb 45f 45f
10:12  -  1 mph 1011.2mb 46f 46f
10:06 1 3 mph 1011.1mb 46f 46f
9:48 1 2 mph 1010.9mb 46f 46f
9:42 2 5 mph 1010.8mb 46f 47f
9:36 2 7 mph 1010.6mb 46f 47f
9:30 6 9 mph - - -
9:24 6 10 mph 1010.5mb 46f 47f
9:18 7 9 mph 1010.4mb 46f 47f
9:12 6 10 mph 1010.3mb 46f 47f
9:06 8 10 mph 1010.2mb 46f 48f
9:00 7 10 mph 1010mb - -
8:54 6 9 mph 1009.9mb 46f 47f
8:48 6 9 mph 1009.7mb 46f 47f
8:42 1 6 mph 1009.6mb 46f 47f
8:36 5 8 mph 1009.6mb 45f 47f
8:30 2 7 mph 1009.6mb 45f 47f
8:24 2 6 mph 1009.5mb 45f 47f
8:18 2 6 mph 1009.3mb 45f 47f
8:12 5 6 mph 1009.3mb 45f 47f
7:54 2 5 mph 1009.2mb 45f 47f
7:48 3 5 mph 1009.1mb 45f 47f
7:42 2 5 mph 1009.1mb 45f 47f
7:36 2 5 mph 1009.1mb 46f 47f
7:30  -  3 mph 1009mb 46f 47f
7:24 1 2 mph 1008.9mb 46f 47f
7:18 1 2 mph 1008.8mb 46f 47f
7:12  -  3 mph 1008.8mb 46f 47f
7:06 1 3 mph 1008.7mb 46f 47f
7:00 2 6 mph 1008.6mb 46f 47f
6:54 3 7 mph 1008.5mb 46f 47f
6:48 3 8 mph - - -
6:42 6 8 mph 1008.3mb 46f 47f
6:36 5 9 mph 1008.3mb 46f 48f
6:30 5 7 mph 1008.3mb 46f 48f
6:24 5 7 mph 1008.3mb 46f 48f
6:18 3 5 mph 1008.2mb 46f 47f
6:12 2 3 mph 1008.2mb 46f 47f
6:06  -  3 mph 1008.2mb 46f 47f
6:00 3 6 mph 1008.2mb 46f 47f
5:42  -  7 mph 1008mb 46f 48f
5:36 2 9 mph 1007.9mb 46f 48f
5:30 3 14 mph 1007.8mb 46f 48f
5:24 6 11 mph 1007.7mb 46f 48f
5:18 9 14 mph 1007.6mb 46f 48f
5:12 8 10 mph 1007.6mb 46f 48f
5:06 7 9 mph 1007.5mb 46f 48f
5:00 5 7 mph 1007.4mb 46f 48f
4:54 3 6 mph 1007.4mb 46f 48f
4:48 5 7 mph 1007.3mb 46f 48f
4:42 1 2 mph - - -
4:36  -  5 mph 1007.3mb 46f 48f
4:30  -  2 mph 1007.2mb 46f 48f
4:24 1 3 mph 1007.1mb 46f 48f
4:18 2 3 mph 1007.1mb 46f 48f
4:12 3 6 mph 1007.2mb 46f 48f
4:06 3 6 mph 1007.2mb 46f 48f
4:00 3 6 mph 1007.2mb 46f -
3:54 1 3 mph 1007.1mb 46f 49f
3:48 2 3 mph 1007.1mb 46f 50f
3:42  -  2 mph 1007mb 46f 51f
3:36 1 2 mph 1006.9mb 46f 51f
3:30  -  2 mph 1006.9mb 46f -
3:24 1 2 mph 1006.8mb 46f 51f
3:18 1 2 mph 1006.8mb 46f 51f
3:12 2 3 mph 1006.7mb 46f 51f
3:06 2
mph
1006.7mb 46f 51f
3:00 2
mph
1006.6mb 46f 51f
2:54 2
mph
1006.6mb 46f 50f
2:48 1 2 mph 1006.6mb 45f 51f
2:42 1 2 mph 1006.5mb 45f 50f
2:36  -  1 mph 1006.5mb 45f 50f
2:30  -  2 mph 1006.6mb 45f 50f
2:24 1 2 mph 1006.6mb 45f 50f
2:18 1
mph
1006.5mb 45f 50f
2:12 1 2 mph 1006.5mb 45f 50f
2:06 1 2 mph 1006.5mb 45f 50f
2:00 1 2 mph 1006.5mb 45f 50f
1:54 2
mph
1006.4mb 45f 50f
1:48 2 3 mph 1006.4mb 45f 49f
1:24 2 3 mph 1006.5mb 45f 50f
1:18 2 5 mph 1006.5mb 45f 50f
1:12 2 3 mph 1006.6mb 45f 50f
1:06 1 2 mph 1006.6mb 45f 50f
1:00  -  3 mph 1006.7mb 45f 51f
12:54 2 5 mph 1006.7mb 45f 50f
12:48 2 6 mph 1006.7mb 45f 50f
12:42 5 6 mph 1006.8mb 45f 49f
12:36 3 6 mph 1006.8mb 45f 48f
12:30 2 3 mph 1006.9mb 45f 50f
12:24 1 5 mph 1007mb 45f 51f
12:18 2 5 mph 1007mb 45f 50f
12:12 2 3 mph 1007.1mb 45f 49f
12:06 2 5 mph 1007.2mb 45f 48f
12:00 2 5 mph 1007.2mb 45f 49f
11:54 2 5 mph 1007.3mb 45f 48f
11:48 1 5 mph 1007.3mb 45f 48f
11:42 3 7 mph 1007.3mb 45f 48f
11:36 3 7 mph 1007.3mb 45f 48f
11:30 3 7 mph 1007.2mb 45f 48f
11:24 1 8 mph 1007.2mb 45f 48f
11:18 6 8 mph 1007.2mb 45f 48f
11:12 5 7 mph 1007.1mb 45f 48f
11:06 6 8 mph 1007.1mb 45f 48f
11:00 6 8 mph 1007.2mb 45f 48f
10:54 6 7 mph 1007.2mb 45f 48f
10:48 6 9 mph 1007.3mb 45f 48f
10:42 6 8 mph 1007.3mb 45f 47f
10:36 5 7 mph 1007.3mb 45f 49f
10:30  -  3 mph 1007.3mb 45f 49f
10:24 2 5 mph 1007.2mb 46f 49f
10:18 3 6 mph 1007.2mb 45f 49f
10:12 3 7 mph 1007.3mb 45f 49f
10:06 5 6 mph 1007.3mb 45f 49f
10:00 3 6 mph 1007.3mb 45f 49f
9:54 5 6 mph 1007.3mb 45f 49f
9:48 2 5 mph 1007.4mb 45f 49f
9:42  -  2 mph 1007.3mb 45f 49f
9:36  -  3 mph 1007.3mb 45f 48f
9:30 3 5 mph 1007.2mb 45f 48f
9:24 2 6 mph 1007.2mb 45f 48f
9:18 5 7 mph 1007.2mb 45f 47f
9:12 6 8 mph 1007.2mb 45f 47f
9:06 6 9 mph 1007.2mb 45f 47f
9:00 5 7 mph 1007.2mb 45f 47f
8:54 6 7 mph 1007.1mb 45f 47f
8:48 5 7 mph 1007.1mb 45f 47f
8:42 5 6 mph 1007.1mb 45f 47f
8:36 5 7 mph 1007.2mb 45f 47f
8:30 6 8 mph 1007.1mb 45f 47f
8:24 6 7 mph 1007.1mb 45f 47f
8:18 6 9 mph 1007.1mb 45f 47f
8:12 6 8 mph 1007.1mb 45f 47f
8:06 5 8 mph 1007.1mb 45f 46f
8:00 6 8 mph 1007mb 45f 46f
7:54 6 8 mph 1007mb 45f 46f
7:48 6 9 mph 1007mb 45f 46f
7:42 6 8 mph 1007mb 45f 46f
7:36 5 8 mph 1007mb 45f 46f
7:30 5 8 mph 1007mb 45f 46f
7:24 6 8 mph 1006.9mb 45f 46f
7:18 5 8 mph 1006.9mb 45f 46f
7:12 6 7 mph 1006.9mb 45f 46f
7:06 5 7 mph 1006.9mb 45f 46f
7:00 6 9 mph 1006.9mb 45f 46f
6:54 7 9 mph 1007mb 45f 46f
6:48 7 10 mph 1007mb 45f 46f
6:42 6 8 mph 1007mb 45f 46f
6:24 5 6 mph 1007.2mb 45f 46f
6:18 5 7 mph 1007.2mb 45f 47f
6:12 3 7 mph 1007.2mb 45f 46f
6:06 5 7 mph 1007.2mb 45f 46f
6:00 3 6 mph 1007.2mb 45f 46f
5:54 3 6 mph 1007.3mb 45f 46f
5:48 5 6 mph 1007.3mb 45f 46f
5:42 3 5 mph 1007.3mb 45f 46f
5:36 3 6 mph 1007.3mb 45f 46f
5:30 3 6 mph 1007.4mb 45f 46f
5:24 5 6 mph 1007.5mb 45f 46f
5:18 3 6 mph 1007.5mb 45f 46f
5:12 5 6 mph 1007.5mb 45f 46f
5:06 3 7 mph 1007.5mb 45f 46f
5:00 3 8 mph 1007.6mb 45f 46f
4:54 5 8 mph 1007.6mb 45f 46f
4:48 3 7 mph 1007.7mb 45f 46f
4:42 2 7 mph 1007.7mb 45f 46f
4:36 2 6 mph 1007.8mb 45f 46f
4:30 3 6 mph 1007.9mb 45f 46f
4:24 3 7 mph 1007.9mb 45f 46f
4:18 5 7 mph 1007.9mb 45f 46f
4:12 5 8 mph 1007.9mb 45f 46f
4:06 5 7 mph 1007.9mb 45f 46f
4:00 5 7 mph 1007.9mb 45f 46f
3:54 5 6 mph 1008mb 45f 46f
3:48 2 5 mph 1008mb 45f 46f
3:42 3 5 mph 1008.1mb 45f 46f
3:36  -  5 mph 1008.1mb 45f 46f
3:30  -  2 mph 1008.2mb 45f 46f
3:24  -  2 mph 1008.2mb 45f 46f
3:18 2 7 mph 1008.3mb 45f 46f
3:12 3 7 mph 1008.3mb 45f 46f
3:06 3 7 mph 1008.3mb 45f 46f
3:00 2 5 mph 1008.4mb 45f 46f
2:54  -  7 mph 1008.4mb 45f 46f
2:48 7 11 mph 1008.4mb 45f 46f
2:42 10 13 mph 1008.5mb 45f 47f
2:36 2 7 mph 1008.6mb 45f 46f
2:30 1 7 mph 1008.7mb 45f 47f
2:24 7 11 mph 1008.7mb 45f 47f
2:18 6 9 mph 1008.8mb 45f 47f
2:12 5 7 mph 1008.7mb 45f 48f
2:06 6 7 mph 1008.8mb 45f 47f
2:00 5 6 mph 1008.9mb 45f 47f
1:54 6 7 mph 1009mb 45f 47f
1:48 6 8 mph 1009mb 45f 47f
1:42 5 7 mph 1009mb 45f 47f
1:36 5 7 mph 1009mb 45f 47f
1:30 6 8 mph 1009.1mb 45f 47f
1:24 6 8 mph 1009.1mb 45f 47f
1:18 3 6 mph 1009.1mb 45f 47f
1:12 3 6 mph 1009.1mb 45f 47f
1:06 1 8 mph 1009.1mb 45f 47f
1:00 5 8 mph 1009.1mb 45f 47f
12:54 6 8 mph 1009.2mb 45f 47f
12:48 3 6 mph 1009.2mb 45f 47f
12:42 3 6 mph 1009.2mb 45f 47f
12:36 2 6 mph 1009.3mb 45f 47f
12:30 2 6 mph 1009.4mb 45f 47f
12:24 3 6 mph 1009.4mb 45f 47f
12:18  -  2 mph 1009.5mb - -
12:12 1 6 mph 1009.5mb 45f 46f
12:06 3 9 mph 1009.5mb 45f 46f
12:00 7 14 mph 1009.6mb 45f 47f
Qui 02/26 11:54 3 7 mph 1009.6mb 45f 47f
11:48 3 6 mph 1009.3mb 45f 47f
11:42 1 5 mph 1009.3mb 45f 47f
11:36  -  2 mph 1009.4mb 45f 47f
11:30 1 3 mph 1009.5mb 45f 47f
11:24  -  3 mph 1009.6mb 45f 47f
11:18 2 5 mph 1009.7mb 45f 47f
11:12 5 6 mph 1009.7mb 45f 47f
11:06 3 5 mph 1009.8mb 45f 47f
11:00 1 2 mph 1010mb 45f 48f
10:54 2 3 mph 1010.1mb 45f 47f
10:48 2 3 mph 1010.3mb 45f 47f
10:42 5 6 mph 1010.5mb - 47f
10:24 3 5 mph 1010.8mb - 47f
10:18 5 6 mph 1011mb 45f 47f
9:54 5 7 mph 1011.4mb 45f 47f
9:48 2 7 mph - - -
9:42 1 3 mph 1011.6mb 45f 47f
9:36 1 6 mph 1011.8mb 45f 47f
9:30 3 5 mph 1012mb 45f 47f
9:24 3 6 mph 1012.1mb 45f 47f
9:18 2 6 mph 1012.2mb 45f 47f
9:12 3 6 mph 1012.3mb 45f 47f
9:06 1 5 mph 1012.5mb 45f 47f
9:00 2 3 mph 1012.7mb 45f 47f
8:54  -  3 mph 1012.8mb 45f 47f
8:48 2 3 mph 1012.9mb 45f -
8:42 2 3 mph 1013mb 45f 47f
8:36 3 5 mph 1013.1mb 45f 47f
8:30 5
mph
1013.2mb 45f 47f
8:24 3 5 mph 1013.3mb 45f 47f
8:18 1 2 mph - - -
8:12 2 5 mph 1013.6mb 45f 47f
8:06 3 5 mph 1013.7mb 45f 47f
8:00 3 5 mph 1013.8mb 45f 47f
7:54 3 5 mph 1013.9mb 45f 47f
7:48 5
mph
1014mb 45f 47f
7:42 3 6 mph 1014.1mb 45f 47f
7:36 3 5 mph 1014.1mb 45f 47f
7:30  -  mph 1014.2mb 45f 47f
7:24  -  2 mph 1014.3mb 45f 47f
7:18 2 3 mph 1014.3mb 45f 48f
7:12 1 2 mph 1014.4mb 45f 48f
7:06 2
mph
1014.5mb 45f 47f
7:00 2 3 mph 1014.6mb 45f 47f
6:54 3 5 mph 1014.6mb 45f 47f
6:48 5 6 mph 1014.7mb 45f 46f
6:42 3
mph
1014.7mb 45f 47f
6:36 1 2 mph 1014.8mb 45f 49f
6:30 1 2 mph 1014.9mb 45f 49f
6:24 1 2 mph 1015mb 46f 48f
6:18 2
mph
1015.1mb 46f 48f
6:12 1 2 mph 1015.2mb 46f 48f
6:06 1
mph
1015.3mb 46f 48f
6:00 1 2 mph 1015.5mb 46f 48f
5:54 2
mph
1015.6mb 46f 48f
5:48 3 5 mph 1015.8mb 46f 48f
5:42  -  mph 1015.9mb 46f 48f